Time;durP1;ratioP1;P1;durP2;ratioP2;P2;SDS_P1;SDS_P2;PMS_P1;PMS_P2;Temp;Humidity;BMP_temperature;BMP_pressure;BME280_temperature;BME280_humidity;BME280_pressure;Samples;Min_cycle;Max_cycle;Signal;HPM_P1;HPM_P2
2022/01/19 00:01:20;;;;;;;109.43;32.53;;;4.40;99.90;;;;;;5086217;28;20227;-84
2022/01/19 00:03:47;;;;;;;104.90;31.30;;;4.40;99.90;;;;;;5074705;28;20558;-83
2022/01/19 00:06:14;;;;;;;91.90;29.80;;;4.30;99.90;;;;;;5091541;28;20201;-81
2022/01/19 00:08:41;;;;;;;104.83;30.23;;;4.30;99.90;;;;;;5069452;28;20219;-84
2022/01/19 00:11:07;;;;;;;102.60;29.20;;;4.20;99.90;;;;;;5088020;28;20379;-84
2022/01/19 00:13:34;;;;;;;256.47;32.03;;;4.20;99.90;;;;;;5079091;28;20229;-84
2022/01/19 00:16:02;;;;;;;210.37;30.67;;;4.20;99.90;;;;;;5097992;28;20209;-82
2022/01/19 00:18:29;;;;;;;222.20;30.53;;;4.10;99.90;;;;;;5098695;28;20804;-84
2022/01/19 00:20:56;;;;;;;234.50;35.30;;;4.10;99.90;;;;;;5075185;28;20589;-84
2022/01/19 00:23:23;;;;;;;200.27;30.80;;;4.10;99.90;;;;;;5072329;28;20551;-84
2022/01/19 00:25:52;;;;;;;236.03;31.07;;;4.10;99.90;;;;;;5091961;28;20309;-84
2022/01/19 00:28:20;;;;;;;250.27;28.33;;;4.00;99.90;;;;;;5094626;28;20194;-82
2022/01/19 00:30:47;;;;;;;264.73;27.73;;;4.00;99.90;;;;;;5072159;28;20208;-84
2022/01/19 00:33:15;;;;;;;217.70;24.00;;;3.90;99.90;;;;;;5070204;28;20208;-84
2022/01/19 00:35:42;;;;;;;290.87;27.47;;;3.90;99.90;;;;;;5069915;28;20683;-84
2022/01/19 00:38:09;;;;;;;250.67;24.40;;;3.80;99.90;;;;;;5093808;28;20597;-84
2022/01/19 00:40:40;;;;;;;226.60;23.57;;;3.80;99.90;;;;;;5087426;28;20330;-84
2022/01/19 00:43:12;;;;;;;179.50;20.63;;;3.80;99.90;;;;;;5068361;28;20753;-85
2022/01/19 00:45:39;;;;;;;230.23;23.97;;;3.70;99.90;;;;;;5091474;28;20203;-81
2022/01/19 00:48:23;;;;;;;249.20;23.67;;;3.70;99.90;;;;;;5080854;28;20305;-83
2022/01/19 00:50:51;;;;;;;245.73;24.37;;;3.70;99.90;;;;;;5088931;28;20616;-84
2022/01/19 00:53:18;;;;;;;159.80;20.77;;;3.70;99.90;;;;;;5066573;28;20647;-83
2022/01/19 00:55:44;;;;;;;158.47;20.43;;;3.70;99.90;;;;;;5073691;28;20198;-85
2022/01/19 00:58:11;;;;;;;169.73;21.83;;;3.70;99.90;;;;;;5074935;28;20290;-83
2022/01/19 01:00:38;;;;;;;215.87;24.00;;;3.70;99.90;;;;;;5091544;28;20229;-84
2022/01/19 01:03:05;;;;;;;177.93;22.80;;;3.70;99.90;;;;;;5096995;28;20301;-84
2022/01/19 01:05:33;;;;;;;208.70;23.67;;;3.70;99.90;;;;;;5091744;28;20206;-84
2022/01/19 01:08:00;;;;;;;178.97;22.60;;;3.70;99.90;;;;;;5072491;28;20207;-84
2022/01/19 01:10:29;;;;;;;164.93;20.77;;;3.60;99.90;;;;;;5077754;28;20321;-84
2022/01/19 01:13:06;;;;;;;113.23;18.30;;;3.60;99.90;;;;;;5092726;28;20221;-83
2022/01/19 01:16:00;;;;;;;141.30;18.27;;;3.70;99.90;;;;;;5078069;28;20203;-84
2022/01/19 01:18:30;;;;;;;142.20;18.40;;;3.60;99.90;;;;;;5094779;28;20678;-83
2022/01/19 01:20:58;;;;;;;133.40;18.83;;;3.60;99.90;;;;;;5075505;28;20310;-84
2022/01/19 01:23:27;;;;;;;155.47;21.80;;;3.60;99.90;;;;;;5070578;28;20198;-83
2022/01/19 01:25:54;;;;;;;221.57;24.17;;;3.50;99.90;;;;;;5091630;28;20207;-84
2022/01/19 01:28:21;;;;;;;100.53;18.50;;;3.50;99.90;;;;;;5093947;28;20620;-84
2022/01/19 01:30:48;;;;;;;109.80;18.33;;;3.50;99.90;;;;;;5089190;28;20586;-84
2022/01/19 01:33:15;;;;;;;160.23;20.33;;;3.50;99.90;;;;;;5089979;28;20214;-84
2022/01/19 01:35:42;;;;;;;135.10;20.60;;;3.50;99.90;;;;;;5082544;28;20296;-84
2022/01/19 01:38:09;;;;;;;139.50;20.23;;;3.50;99.90;;;;;;5094078;28;20319;-84
2022/01/19 01:40:47;;;;;;;126.83;18.77;;;3.50;99.90;;;;;;5090635;28;20237;-85
2022/01/19 01:43:14;;;;;;;182.87;22.07;;;3.40;99.90;;;;;;5078043;28;20205;-84
2022/01/19 01:45:45;;;;;;;75.00;18.13;;;3.40;99.90;;;;;;5089990;28;20208;-84
2022/01/19 01:48:16;;;;;;;82.03;18.00;;;3.30;99.90;;;;;;5093171;28;20302;-84
2022/01/19 01:53:32;;;;;;;91.53;16.87;;;3.30;99.90;;;;;;5096835;28;20201;-83
2022/01/19 01:56:16;;;;;;;125.40;18.60;;;3.20;99.90;;;;;;5091464;28;20222;-83
2022/01/19 01:58:46;;;;;;;124.40;18.93;;;3.20;99.90;;;;;;5085085;28;20216;-83
2022/01/19 02:01:12;;;;;;;65.27;16.60;;;3.10;99.90;;;;;;5094687;28;20242;-83
2022/01/19 02:03:42;;;;;;;60.13;17.10;;;3.00;99.90;;;;;;5087889;28;20306;-83
2022/01/19 02:06:29;;;;;;;81.20;17.17;;;2.90;99.90;;;;;;5091416;28;20205;-83
2022/01/19 02:09:09;;;;;;;82.10;18.73;;;2.90;99.90;;;;;;5094342;28;20207;-83
2022/01/19 02:23:26;;;;;;;130.57;22.50;;;2.90;99.90;;;;;;5089837;28;20933;-83
2022/01/19 02:26:00;;;;;;;88.30;19.93;;;2.70;99.90;;;;;;5080803;28;20235;-83
2022/01/19 02:42:13;;;;;;;73.60;18.90;;;2.50;99.90;;;;;;5096185;28;20235;-83
2022/01/19 02:49:45;;;;;;;56.30;19.90;;;2.50;99.90;;;;;;5099380;28;20280;-83
2022/01/19 02:52:11;;;;;;;49.77;18.40;;;2.40;99.90;;;;;;5095126;28;20233;-84
2022/01/19 02:54:39;;;;;;;57.30;19.87;;;2.40;99.90;;;;;;5089896;28;20200;-85
2022/01/19 02:57:09;;;;;;;52.00;20.27;;;2.40;99.90;;;;;;5085790;28;20204;-84
2022/01/19 03:06:14;;;;;;;57.53;19.90;;;2.40;99.90;;;;;;5086353;28;20214;-83
2022/01/19 03:10:53;;;;;;;135.70;26.23;;;2.40;99.90;;;;;;5091457;28;20199;-82
2022/01/19 03:13:19;;;;;;;267.60;38.07;;;2.40;99.90;;;;;;5092371;28;20211;-83
2022/01/19 03:15:47;;;;;;;404.13;44.93;;;2.50;99.90;;;;;;5092483;28;20212;-83
2022/01/19 03:18:14;;;;;;;252.87;39.07;;;2.70;99.90;;;;;;5085216;28;20227;-83
2022/01/19 03:20:41;;;;;;;300.00;42.90;;;2.80;99.90;;;;;;5094184;28;20338;-84
2022/01/19 03:23:18;;;;;;;325.53;41.67;;;2.90;99.90;;;;;;5078630;28;20761;-83
2022/01/19 03:25:46;;;;;;;399.60;45.00;;;3.00;99.90;;;;;;5078801;28;20726;-83
2022/01/19 03:28:12;;;;;;;205.53;35.83;;;3.10;99.90;;;;;;5072213;28;20202;-83
2022/01/19 03:30:39;;;;;;;308.40;42.63;;;3.20;99.90;;;;;;5094088;28;20217;-83
2022/01/19 03:33:06;;;;;;;199.07;32.77;;;3.20;99.90;;;;;;5096738;28;20208;-84
2022/01/19 03:35:33;;;;;;;123.37;26.27;;;3.30;99.90;;;;;;5087607;28;20238;-85
2022/01/19 03:38:00;;;;;;;89.60;25.77;;;3.30;99.90;;;;;;5088212;28;20253;-84
2022/01/19 03:40:27;;;;;;;109.93;25.67;;;3.20;99.90;;;;;;5092517;28;20309;-84
2022/01/19 03:42:54;;;;;;;78.33;24.10;;;3.10;99.90;;;;;;5086494;28;20213;-84
2022/01/19 03:45:21;;;;;;;123.40;26.93;;;3.10;99.90;;;;;;5082830;28;20297;-84
2022/01/19 03:48:06;;;;;;;140.90;28.00;;;3.00;99.90;;;;;;5084873;28;20284;-84
2022/01/19 03:50:36;;;;;;;240.07;32.27;;;3.00;99.90;;;;;;5089337;28;20218;-83
2022/01/19 03:53:03;;;;;;;135.40;26.27;;;2.90;99.90;;;;;;5092018;28;20236;-83
2022/01/19 03:55:30;;;;;;;168.10;28.60;;;2.90;99.90;;;;;;5071338;28;20623;-84
2022/01/19 03:57:56;;;;;;;211.10;33.30;;;2.90;99.90;;;;;;5087028;28;20198;-84
2022/01/19 04:00:24;;;;;;;220.33;31.23;;;2.90;99.90;;;;;;5083784;28;20210;-83
2022/01/19 04:02:51;;;;;;;254.50;34.40;;;2.80;99.90;;;;;;5066576;28;20217;-84
2022/01/19 04:05:24;;;;;;;193.77;29.70;;;2.90;99.90;;;;;;5095306;28;20208;-84
2022/01/19 04:07:51;;;;;;;251.80;32.60;;;2.90;99.90;;;;;;5099451;28;20208;-83
2022/01/19 04:10:18;;;;;;;341.30;38.03;;;2.90;99.90;;;;;;5094741;28;20300;-82
2022/01/19 04:15:13;;;;;;;228.83;32.33;;;2.90;99.90;;;;;;5097323;28;20601;-84
2022/01/19 04:17:46;;;;;;;355.63;38.37;;;2.80;99.90;;;;;;5087991;28;20220;-84
2022/01/19 04:20:14;;;;;;;262.00;33.00;;;2.90;99.90;;;;;;5092501;28;20196;-82
2022/01/19 04:22:40;;;;;;;246.27;29.83;;;3.00;99.90;;;;;;5091149;28;20786;-83
2022/01/19 04:25:07;;;;;;;386.20;38.07;;;2.80;99.90;;;;;;5101164;28;20292;-83
2022/01/19 04:27:34;;;;;;;345.23;35.60;;;2.90;99.90;;;;;;5073976;28;20212;-82
2022/01/19 04:30:08;;;;;;;168.37;26.83;;;2.80;99.90;;;;;;5096160;28;20611;-85
2022/01/19 04:32:46;;;;;;;143.10;24.27;;;2.80;99.90;;;;;;5071330;28;20205;-82
2022/01/19 04:35:17;;;;;;;388.60;37.53;;;2.80;99.90;;;;;;5071603;28;20254;-84
2022/01/19 05:02:51;;;;;;;189.63;25.37;;;2.50;99.90;;;;;;5092461;28;20232;-84
2022/01/19 05:07:43;;;;;;;174.90;25.70;;;2.40;99.90;;;;;;5092815;28;20214;-84
2022/01/19 05:15:41;;;;;;;148.50;24.40;;;2.20;99.90;;;;;;5086920;28;20224;-84
2022/01/19 05:18:08;;;;;;;213.30;26.73;;;2.20;99.90;;;;;;5084876;28;20211;-84
2022/01/19 05:20:35;;;;;;;176.33;23.30;;;2.10;99.90;;;;;;5088000;28;20600;-84
2022/01/19 05:23:02;;;;;;;147.27;22.40;;;2.10;99.90;;;;;;5097653;28;20245;-84
2022/01/19 05:25:29;;;;;;;250.13;29.47;;;2.10;99.90;;;;;;5094293;28;20192;-83
2022/01/19 05:27:55;;;;;;;148.93;25.73;;;2.00;99.90;;;;;;5098840;28;20331;-83
2022/01/19 05:30:23;;;;;;;145.33;24.13;;;1.90;99.90;;;;;;5092581;28;20322;-83
2022/01/19 05:32:49;;;;;;;96.70;21.80;;;1.90;99.90;;;;;;5084821;28;20250;-83
2022/01/19 05:35:16;;;;;;;126.93;22.93;;;1.90;99.90;;;;;;5082593;28;20220;-83
2022/01/19 05:37:43;;;;;;;112.20;21.67;;;1.60;99.90;;;;;;5093445;28;20281;-82
2022/01/19 05:40:13;;;;;;;86.63;20.80;;;1.60;99.90;;;;;;5093078;28;20228;-82
2022/01/19 05:42:40;;;;;;;92.60;20.97;;;1.50;99.90;;;;;;5091971;28;20224;-82
2022/01/19 05:45:07;;;;;;;87.30;21.47;;;1.40;99.90;;;;;;5095749;28;20202;-82
2022/01/19 05:47:34;;;;;;;104.50;21.83;;;1.50;99.90;;;;;;5094187;28;20244;-83
2022/01/19 05:50:01;;;;;;;72.27;19.87;;;1.40;99.90;;;;;;5088042;28;20393;-83
2022/01/19 05:52:28;;;;;;;66.63;19.47;;;1.50;99.90;;;;;;5093943;28;20294;-83
2022/01/19 05:54:55;;;;;;;70.07;20.10;;;1.40;99.90;;;;;;5084371;28;20542;-83
2022/01/19 05:57:22;;;;;;;69.03;20.23;;;1.50;99.90;;;;;;5086908;28;20721;-85
2022/01/19 05:59:49;;;;;;;73.33;18.53;;;1.40;99.90;;;;;;5093334;28;20292;-83
2022/01/19 06:02:16;;;;;;;66.73;18.83;;;1.40;99.90;;;;;;5090814;28;20252;-83
2022/01/19 06:04:43;;;;;;;59.23;18.97;;;1.40;99.90;;;;;;5091123;28;20663;-83
2022/01/19 06:07:11;;;;;;;49.17;19.40;;;1.40;99.90;;;;;;5092830;28;20258;-84
2022/01/19 06:12:10;;;;;;;56.43;19.83;;;1.40;99.90;;;;;;5089078;28;20201;-83
2022/01/19 06:14:39;;;;;;;53.77;20.33;;;1.50;99.90;;;;;;5090894;28;20634;-83
2022/01/19 06:17:08;;;;;;;50.17;19.77;;;1.50;99.90;;;;;;5090907;28;20210;-83
2022/01/19 06:19:35;;;;;;;49.47;19.00;;;1.60;99.90;;;;;;5086041;28;20207;-83
2022/01/19 06:22:02;;;;;;;49.77;19.23;;;1.60;99.90;;;;;;5091693;28;20813;-83
2022/01/19 06:24:31;;;;;;;49.80;20.23;;;1.70;99.90;;;;;;5093697;28;20676;-83
2022/01/19 06:26:57;;;;;;;65.50;22.27;;;1.70;99.90;;;;;;5095638;28;20318;-82
2022/01/19 06:29:24;;;;;;;56.53;21.57;;;1.70;99.90;;;;;;5071906;28;20196;-83
2022/01/19 06:31:51;;;;;;;67.43;23.17;;;1.80;99.90;;;;;;5064527;28;20349;-83
2022/01/19 06:34:18;;;;;;;77.57;25.27;;;1.80;99.90;;;;;;5085815;28;20200;-83
2022/01/19 06:36:44;;;;;;;77.00;25.37;;;1.90;99.90;;;;;;5087600;28;20320;-84
2022/01/19 06:39:11;;;;;;;87.37;27.20;;;1.90;99.90;;;;;;5076769;28;20216;-84
2022/01/19 06:41:38;;;;;;;83.37;28.63;;;2.00;99.90;;;;;;5089556;28;20241;-83
2022/01/19 06:44:05;;;;;;;85.73;27.37;;;2.10;99.90;;;;;;5088609;28;20927;-83
2022/01/19 06:46:32;;;;;;;101.07;30.20;;;2.10;99.90;;;;;;5070464;28;20196;-84
2022/01/19 06:48:59;;;;;;;89.63;28.37;;;2.20;99.90;;;;;;5072430;28;20587;-84
2022/01/19 06:51:26;;;;;;;85.87;29.23;;;2.30;99.90;;;;;;5073243;28;20238;-84
2022/01/19 06:53:52;;;;;;;98.63;29.07;;;2.30;99.90;;;;;;5077344;28;20639;-84
2022/01/19 06:56:19;;;;;;;101.57;30.83;;;2.40;99.90;;;;;;5080699;28;20201;-84
2022/01/19 06:58:47;;;;;;;108.83;31.17;;;2.40;99.90;;;;;;5061524;28;20197;-83
2022/01/19 07:01:13;;;;;;;110.70;32.70;;;2.50;99.90;;;;;;5091947;28;20228;-83
2022/01/19 07:03:40;;;;;;;109.57;35.07;;;2.60;99.90;;;;;;5088342;28;20224;-84
2022/01/19 07:06:11;;;;;;;107.07;33.20;;;2.60;99.90;;;;;;5084093;28;20319;-83
2022/01/19 07:08:39;;;;;;;109.67;34.13;;;2.70;99.90;;;;;;5096713;28;20221;-83
2022/01/19 07:11:07;;;;;;;112.37;36.60;;;2.80;99.90;;;;;;5094330;28;20212;-84
2022/01/19 07:13:33;;;;;;;107.40;34.00;;;2.80;99.90;;;;;;5092680;28;20941;-83
2022/01/19 07:16:00;;;;;;;127.47;36.10;;;2.80;99.90;;;;;;5078729;28;20258;-83
2022/01/19 07:18:27;;;;;;;111.00;35.90;;;2.90;99.90;;;;;;5086899;28;20693;-83
2022/01/19 07:20:54;;;;;;;117.73;35.13;;;3.00;99.90;;;;;;5081403;28;20346;-84
2022/01/19 07:23:21;;;;;;;127.13;36.47;;;3.00;99.90;;;;;;5097607;28;20226;-84
2022/01/19 07:25:47;;;;;;;113.37;35.60;;;3.00;99.90;;;;;;5090495;28;20225;-84
2022/01/19 07:28:14;;;;;;;116.03;37.40;;;3.10;99.90;;;;;;5086622;28;20211;-84
2022/01/19 07:30:41;;;;;;;120.33;37.60;;;3.10;99.90;;;;;;5084733;28;20721;-83
2022/01/19 07:33:08;;;;;;;129.23;38.43;;;3.10;99.90;;;;;;5095251;28;20254;-83
2022/01/19 07:35:34;;;;;;;140.27;41.47;;;3.20;99.90;;;;;;5091755;28;20216;-83
2022/01/19 07:38:01;;;;;;;122.83;40.37;;;3.20;99.90;;;;;;5079599;28;20288;-82
2022/01/19 07:40:33;;;;;;;143.40;39.80;;;3.30;99.90;;;;;;5075447;28;20233;-83
2022/01/19 07:42:59;;;;;;;140.53;42.53;;;3.30;99.90;;;;;;5092352;28;20230;-84
2022/01/19 07:45:26;;;;;;;148.70;41.70;;;3.30;99.90;;;;;;5081171;28;20249;-82
2022/01/19 07:47:53;;;;;;;151.23;44.37;;;3.30;99.90;;;;;;5086519;28;20334;-82
2022/01/19 07:50:20;;;;;;;154.47;43.83;;;3.30;99.90;;;;;;5090142;28;20589;-82
2022/01/19 07:52:46;;;;;;;158.70;46.27;;;3.40;99.90;;;;;;5088382;28;20292;-79
2022/01/19 07:55:13;;;;;;;177.17;47.93;;;3.40;99.90;;;;;;5082037;28;20205;-81
2022/01/19 07:57:45;;;;;;;180.53;49.43;;;3.40;99.90;;;;;;5107573;28;20202;-82
2022/01/19 08:00:13;;;;;;;179.93;49.00;;;3.40;99.90;;;;;;5105153;28;20534;-79
2022/01/19 08:02:40;;;;;;;191.33;47.57;;;3.50;99.90;;;;;;5107975;28;20244;-79
2022/01/19 08:05:08;;;;;;;168.60;46.97;;;3.50;99.90;;;;;;5106888;28;20263;-81
2022/01/19 08:07:35;;;;;;;165.37;48.57;;;3.50;99.90;;;;;;5108532;28;20575;-80
2022/01/19 08:10:05;;;;;;;176.87;47.23;;;3.50;99.90;;;;;;5107457;28;20641;-80
2022/01/19 08:12:32;;;;;;;181.27;48.03;;;3.50;99.90;;;;;;5104250;28;20196;-80
2022/01/19 08:14:59;;;;;;;195.17;48.93;;;3.60;99.90;;;;;;5086455;28;20609;-81
2022/01/19 08:17:27;;;;;;;186.70;48.73;;;3.60;99.90;;;;;;5091468;28;20261;-81
2022/01/19 08:19:55;;;;;;;192.03;52.33;;;3.50;99.90;;;;;;5104383;28;20284;-77
2022/01/19 08:22:22;;;;;;;197.93;50.40;;;3.60;99.90;;;;;;5103760;28;20215;-81
2022/01/19 08:24:50;;;;;;;203.77;51.37;;;3.60;99.90;;;;;;5107901;28;20321;-81
2022/01/19 08:27:17;;;;;;;205.80;53.30;;;3.60;99.90;;;;;;5088939;28;20286;-80
2022/01/19 08:29:44;;;;;;;201.13;49.67;;;3.60;99.90;;;;;;5105044;28;20234;-81
2022/01/19 08:32:12;;;;;;;209.60;52.77;;;3.60;99.90;;;;;;5102287;28;20207;-78
2022/01/19 08:34:58;;;;;;;206.47;50.10;;;3.60;99.90;;;;;;5107397;28;20216;-80
2022/01/19 08:37:24;;;;;;;209.23;53.63;;;3.70;99.90;;;;;;5101295;28;20200;-80
2022/01/19 08:39:52;;;;;;;211.67;53.33;;;3.70;99.90;;;;;;5095034;28;20232;-79
2022/01/19 08:42:19;;;;;;;217.70;51.37;;;3.70;99.90;;;;;;5105591;28;20230;-80
2022/01/19 08:44:52;;;;;;;202.40;51.33;;;3.80;99.90;;;;;;5104884;28;20205;-79
2022/01/19 08:47:19;;;;;;;228.63;50.63;;;3.80;99.90;;;;;;5109078;28;20211;-79
2022/01/19 08:49:54;;;;;;;201.00;49.17;;;3.80;99.90;;;;;;5106296;28;20251;-78
2022/01/19 08:52:22;;;;;;;205.23;52.87;;;3.90;99.90;;;;;;5106812;28;20308;-79
2022/01/19 08:54:48;;;;;;;231.70;52.67;;;3.90;99.90;;;;;;5090352;27;20195;-80
2022/01/19 08:57:16;;;;;;;217.27;50.80;;;3.90;99.90;;;;;;5110838;27;20286;-81
2022/01/19 08:59:43;;;;;;;200.00;52.90;;;3.90;99.90;;;;;;5110620;27;20218;-80
2022/01/19 09:02:10;;;;;;;188.93;49.60;;;3.90;99.90;;;;;;5108324;27;20266;-79
2022/01/19 09:04:38;;;;;;;191.23;51.37;;;3.90;99.90;;;;;;5110319;27;20218;-79
2022/01/19 09:07:05;;;;;;;173.47;48.80;;;3.80;99.90;;;;;;5110258;27;20234;-80
2022/01/19 09:09:31;;;;;;;180.83;48.67;;;3.90;99.90;;;;;;5108723;27;20252;-79
2022/01/19 09:11:58;;;;;;;203.23;51.10;;;3.90;99.90;;;;;;5110572;27;20207;-81
2022/01/19 09:14:25;;;;;;;171.27;47.23;;;3.80;99.90;;;;;;5110856;27;20290;-77
2022/01/19 09:16:52;;;;;;;183.33;49.70;;;3.90;99.90;;;;;;5108190;28;20294;-80
2022/01/19 09:19:19;;;;;;;176.60;48.77;;;3.90;99.90;;;;;;5110998;27;20206;-79
2022/01/19 09:21:48;;;;;;;158.30;46.17;;;3.90;99.90;;;;;;5111591;27;20229;-81
2022/01/19 09:24:15;;;;;;;172.53;47.63;;;3.90;99.90;;;;;;5108011;27;20562;-82
2022/01/19 09:26:42;;;;;;;157.90;46.20;;;3.90;99.90;;;;;;5104974;28;20203;-79
2022/01/19 09:29:09;;;;;;;172.70;47.40;;;3.90;99.90;;;;;;5093459;27;20200;-81
2022/01/19 09:31:39;;;;;;;159.00;47.07;;;3.90;99.90;;;;;;5108707;28;20245;-81
2022/01/19 09:34:08;;;;;;;177.70;48.17;;;3.90;99.90;;;;;;5090734;28;20227;-81
2022/01/19 09:36:48;;;;;;;166.57;45.30;;;4.00;99.90;;;;;;5108223;27;20191;-81
2022/01/19 09:39:24;;;;;;;160.93;45.07;;;4.00;99.90;;;;;;5107807;28;20368;-79
2022/01/19 09:41:52;;;;;;;160.20;45.57;;;4.00;99.90;;;;;;5106828;28;20209;-82
2022/01/19 09:44:21;;;;;;;160.40;44.40;;;4.00;99.90;;;;;;5110688;27;20203;-85
2022/01/19 09:46:49;;;;;;;161.17;44.33;;;4.00;99.90;;;;;;5092155;28;20307;-83
2022/01/19 09:49:18;;;;;;;146.57;43.13;;;3.90;99.90;;;;;;5108505;27;20195;-81
2022/01/19 09:51:47;;;;;;;145.67;43.73;;;4.00;99.90;;;;;;5101909;27;20200;-82
2022/01/19 09:54:23;;;;;;;141.73;43.03;;;3.90;99.90;;;;;;5108474;27;20190;-82
2022/01/19 09:56:52;;;;;;;163.33;46.27;;;4.10;99.90;;;;;;5107257;28;20199;-81
2022/01/19 09:59:20;;;;;;;145.97;42.43;;;4.10;99.90;;;;;;5095653;28;20196;-83
2022/01/19 10:02:09;;;;;;;145.47;41.53;;;4.00;99.90;;;;;;5109542;27;20268;-82
2022/01/19 10:04:42;;;;;;;154.77;42.47;;;4.10;99.90;;;;;;5105250;28;20238;-81
2022/01/19 10:07:10;;;;;;;140.43;43.13;;;4.10;99.90;;;;;;5107810;27;20580;-81
2022/01/19 10:09:56;;;;;;;150.63;43.90;;;4.10;99.90;;;;;;5108212;27;20252;-84
2022/01/19 10:18:10;;;;;;;144.17;42.83;;;4.20;99.90;;;;;;5109480;27;20213;-82
2022/01/19 10:20:38;;;;;;;150.07;44.63;;;4.20;99.90;;;;;;5110540;27;20297;-82
2022/01/19 10:23:05;;;;;;;152.00;46.00;;;4.30;99.90;;;;;;5101891;28;20461;-80
2022/01/19 10:25:50;;;;;;;150.80;44.83;;;4.30;99.90;;;;;;5107520;27;20212;-79
2022/01/19 10:28:17;;;;;;;137.07;43.10;;;4.30;99.90;;;;;;5104965;28;20279;-79
2022/01/19 10:30:44;;;;;;;128.57;42.67;;;4.30;99.90;;;;;;5109629;27;20307;-83
2022/01/19 10:33:17;;;;;;;136.47;44.77;;;4.30;99.90;;;;;;5094301;27;20242;-82
2022/01/19 10:35:49;;;;;;;135.97;42.57;;;4.30;99.90;;;;;;5108608;27;20195;-81
2022/01/19 10:38:28;;;;;;;127.07;42.07;;;4.30;99.90;;;;;;5107800;27;20203;-81
2022/01/19 10:41:07;;;;;;;131.97;44.00;;;4.30;99.90;;;;;;5106774;27;20408;-80
2022/01/19 10:43:44;;;;;;;147.10;46.87;;;4.30;99.90;;;;;;5104628;27;20313;-81
2022/01/19 10:46:29;;;;;;;140.33;47.67;;;4.40;99.90;;;;;;5082930;28;20290;-80
2022/01/19 10:48:59;;;;;;;151.93;49.13;;;4.40;99.90;;;;;;5104759;27;20196;-81
2022/01/19 10:51:30;;;;;;;126.17;43.80;;;4.40;99.90;;;;;;5092454;28;20210;-82
2022/01/19 10:54:30;;;;;;;134.50;43.63;;;4.50;99.90;;;;;;5081523;27;20238;-81
2022/01/19 10:56:58;;;;;;;122.33;44.00;;;4.50;99.90;;;;;;5089887;27;20674;-81
2022/01/19 10:59:43;;;;;;;118.20;43.33;;;4.50;99.90;;;;;;5108059;27;20213;-81
2022/01/19 11:02:12;;;;;;;124.67;43.53;;;4.50;99.90;;;;;;5098576;27;20210;-83
2022/01/19 11:04:39;;;;;;;102.43;42.23;;;4.60;99.90;;;;;;5108725;27;20205;-80
2022/01/19 11:07:11;;;;;;;124.87;43.67;;;4.60;99.90;;;;;;5109434;27;20199;-80
2022/01/19 11:09:57;;;;;;;118.97;42.13;;;4.60;99.90;;;;;;5112403;27;20267;-81
2022/01/19 11:12:31;;;;;;;126.37;45.93;;;4.60;99.90;;;;;;5103540;27;20191;-80
2022/01/19 11:14:58;;;;;;;110.87;42.13;;;4.70;99.90;;;;;;5113526;27;20272;-79
2022/01/19 11:17:35;;;;;;;109.93;42.23;;;4.70;99.90;;;;;;5111594;27;20305;-79
2022/01/19 11:20:09;;;;;;;106.37;42.23;;;4.70;99.90;;;;;;5109808;27;20706;-80
2022/01/19 11:22:42;;;;;;;120.87;43.77;;;4.70;99.90;;;;;;5105702;27;20277;-81
2022/01/19 11:25:31;;;;;;;99.47;42.80;;;4.70;99.90;;;;;;5088165;28;20278;-83
2022/01/19 11:28:23;;;;;;;108.80;42.53;;;4.70;99.90;;;;;;5107604;28;20208;-80
2022/01/19 11:30:50;;;;;;;99.23;40.80;;;4.60;99.90;;;;;;5100992;27;20201;-80
2022/01/19 11:33:28;;;;;;;100.00;41.13;;;4.70;99.90;;;;;;5097674;27;20273;-80
2022/01/19 11:35:58;;;;;;;92.53;40.93;;;4.70;99.90;;;;;;5106421;28;20247;-82
2022/01/19 11:38:36;;;;;;;101.60;40.57;;;4.60;99.90;;;;;;5103518;28;20206;-82
2022/01/19 11:41:07;;;;;;;93.70;40.03;;;4.60;99.90;;;;;;5107929;27;20355;-81
2022/01/19 11:43:36;;;;;;;97.47;40.13;;;4.60;99.90;;;;;;5108034;28;20303;-82
2022/01/19 11:46:04;;;;;;;95.80;39.73;;;4.70;99.90;;;;;;5109445;28;20208;-81
2022/01/19 11:48:35;;;;;;;99.97;39.03;;;4.60;99.90;;;;;;5105321;27;20211;-82
2022/01/19 11:51:27;;;;;;;103.47;40.00;;;4.70;99.90;;;;;;5107629;28;20193;-81
2022/01/19 11:54:29;;;;;;;93.47;39.83;;;4.70;99.90;;;;;;5091051;28;20681;-81
2022/01/19 11:56:59;;;;;;;97.27;40.53;;;4.70;99.90;;;;;;5043313;28;20288;-81
2022/01/19 11:59:30;;;;;;;100.80;41.93;;;4.80;99.90;;;;;;5100589;28;20202;-80
2022/01/19 12:02:23;;;;;;;86.70;36.33;;;4.80;99.90;;;;;;5109657;28;20215;-81
2022/01/19 12:05:10;;;;;;;91.83;38.80;;;4.80;99.90;;;;;;5109096;28;20282;-81
2022/01/19 12:07:45;;;;;;;94.77;41.23;;;4.70;99.90;;;;;;5085213;28;20206;-81
2022/01/19 12:10:20;;;;;;;92.00;38.93;;;4.70;99.90;;;;;;5103215;28;20238;-79
2022/01/19 12:16:06;;;;;;;105.93;38.80;;;4.90;99.90;;;;;;5108317;28;20201;-80
2022/01/19 12:18:43;;;;;;;90.80;38.30;;;5.00;99.90;;;;;;5103552;28;20625;-84
2022/01/19 12:21:14;;;;;;;89.00;36.27;;;5.00;99.90;;;;;;5102072;28;20235;-79
2022/01/19 12:23:43;;;;;;;84.70;36.47;;;5.10;99.90;;;;;;5105030;28;20754;-81
2022/01/19 12:26:11;;;;;;;83.47;35.63;;;5.20;99.90;;;;;;5109451;28;20234;-81
2022/01/19 12:28:50;;;;;;;82.93;35.83;;;5.20;99.90;;;;;;5101841;28;20215;-78
2022/01/19 12:31:29;;;;;;;88.40;40.70;;;5.20;99.90;;;;;;5110828;27;20238;-82
2022/01/19 12:34:02;;;;;;;84.03;36.80;;;5.30;99.90;;;;;;5112238;27;20264;-78
2022/01/19 12:37:00;;;;;;;83.40;36.83;;;5.40;99.90;;;;;;5112087;27;20203;-80
2022/01/19 12:39:28;;;;;;;79.57;36.23;;;5.40;99.90;;;;;;5114580;27;20603;-79
2022/01/19 12:42:05;;;;;;;80.33;36.37;;;5.50;99.90;;;;;;5085830;27;20207;-80
2022/01/19 12:44:35;;;;;;;87.87;36.53;;;5.70;99.90;;;;;;5088210;28;20226;-81
2022/01/19 12:47:03;;;;;;;75.03;33.67;;;5.70;99.90;;;;;;5111837;27;20296;-80
2022/01/19 12:49:31;;;;;;;74.50;35.83;;;5.70;99.90;;;;;;5110955;27;20611;-84
2022/01/19 12:51:59;;;;;;;74.67;36.00;;;5.70;99.90;;;;;;5109324;27;20232;-83
2022/01/19 12:54:29;;;;;;;82.87;34.40;;;5.70;99.90;;;;;;5113752;27;20321;-81
2022/01/19 12:57:03;;;;;;;81.47;35.17;;;5.70;99.90;;;;;;5114504;27;20296;-83
2022/01/19 12:59:32;;;;;;;72.93;32.13;;;5.70;99.90;;;;;;5109594;27;20214;-83
2022/01/19 13:02:00;;;;;;;71.60;33.63;;;5.80;99.90;;;;;;5108291;27;20279;-82
2022/01/19 13:04:29;;;;;;;74.73;34.70;;;5.70;99.90;;;;;;5115832;27;20223;-82
2022/01/19 13:07:23;;;;;;;76.23;33.93;;;5.70;99.90;;;;;;5097328;27;20740;-82
2022/01/19 13:10:12;;;;;;;67.97;32.53;;;5.70;99.90;;;;;;5090527;28;20239;-82
2022/01/19 13:12:50;;;;;;;68.50;32.87;;;5.70;99.90;;;;;;5096721;28;20211;-80
2022/01/19 13:15:18;;;;;;;73.93;34.40;;;5.80;99.90;;;;;;5113528;27;20191;-81
2022/01/19 13:17:47;;;;;;;75.37;33.33;;;5.80;99.90;;;;;;5111980;27;20625;-82
2022/01/19 13:20:17;;;;;;;69.00;31.77;;;5.90;99.90;;;;;;5112399;27;20197;-81
2022/01/19 13:22:52;;;;;;;70.17;33.30;;;5.80;99.90;;;;;;5107961;28;20556;-81
2022/01/19 13:25:25;;;;;;;68.57;31.30;;;5.90;99.90;;;;;;5108708;28;20204;-81
2022/01/19 13:27:55;;;;;;;70.37;33.50;;;5.90;99.90;;;;;;5112662;27;20204;-82
2022/01/19 13:30:25;;;;;;;63.83;32.30;;;5.90;99.90;;;;;;5108531;28;20784;-81
2022/01/19 13:32:53;;;;;;;73.90;31.07;;;5.90;99.90;;;;;;5105361;27;20209;-81
2022/01/19 13:35:22;;;;;;;74.07;32.83;;;5.90;99.90;;;;;;5103286;27;20311;-80
2022/01/19 13:37:58;;;;;;;66.17;30.13;;;5.90;99.90;;;;;;5114645;27;20198;-81
2022/01/19 13:40:28;;;;;;;67.23;31.80;;;5.90;99.90;;;;;;5075292;28;20282;-79
2022/01/19 13:43:01;;;;;;;68.43;32.70;;;6.00;99.90;;;;;;5086529;28;20207;-81
2022/01/19 13:48:28;;;;;;;67.83;29.57;;;5.90;99.90;;;;;;5086588;28;20213;-80
2022/01/19 13:51:02;;;;;;;74.10;31.93;;;5.90;99.90;;;;;;5089054;28;20620;-79
2022/01/19 13:53:35;;;;;;;65.83;30.63;;;5.80;99.90;;;;;;5093555;28;20691;-81
2022/01/19 13:56:09;;;;;;;71.73;30.43;;;5.90;99.90;;;;;;5092072;28;20201;-80
2022/01/19 13:58:42;;;;;;;66.07;30.17;;;6.00;99.90;;;;;;5073791;28;20602;-80
2022/01/19 14:01:13;;;;;;;65.43;31.53;;;6.00;99.90;;;;;;5076082;28;20210;-81
2022/01/19 14:04:04;;;;;;;71.73;33.43;;;6.00;99.90;;;;;;5070583;28;20222;-80
2022/01/19 14:06:34;;;;;;;74.23;31.57;;;5.90;99.90;;;;;;5068070;28;20218;-81
2022/01/19 14:09:10;;;;;;;71.50;31.43;;;6.00;99.90;;;;;;5090912;28;20612;-81
2022/01/19 14:11:39;;;;;;;66.70;30.90;;;6.00;99.90;;;;;;5091135;28;20208;-82
2022/01/19 14:14:20;;;;;;;62.43;31.10;;;6.00;99.90;;;;;;5090766;28;20266;-79
2022/01/19 14:16:49;;;;;;;61.70;31.63;;;6.00;99.90;;;;;;5079723;28;20681;-80
2022/01/19 14:19:19;;;;;;;62.17;30.20;;;6.00;99.90;;;;;;5089143;28;20558;-80